^^
Saratoga-Weather Station Historical Data
Daily Summary for October 19, 2021 Units:  Both    English   Metric
Daily Weekly Monthly Yearly Custom
  High: Low: Average:
Temperature: 47.5 °F /  8.6 °C 46.2 °F /  7.9 °C 46.9 °F /  8.3 °C
Dew Point: 46.4 °F /  8 °C 44.8 °F /  7.1 °C 45.7 °F /  7.6 °C
Humidity: 96% 95% 96%
Wind Speed: 0mph /  0km/h - 0mph /  0km/h
Wind Gust: 0mph /  0km/h - -
Wind- -
Pressure: 30.2 in /  1023.0 hPa 30.2 in /  1022.7 hPa -
Precipitation: 0 in /  0.0 mm    
Historical Graphs
 
 
Tabular Data for October 19, 2021
Time Temperature Dew Point Pressure Wind Wind Speed Wind Gust Humidity Rainfall Rate (Hourly) solar
00:04 46.6 °F /  8.1 °C 45.1 °F /  7.3 °C 30.2in /  1023.0hPa Calm     95% 0in /  0.0mm 0 W/m2
00:09 46.4 °F /  8 °C 45 °F /  7.2 °C 30.2in /  1023.0hPa Calm     95% 0in /  0.0mm 0 W/m2
00:14 46.2 °F /  7.9 °C 44.8 °F /  7.1 °C 30.2in /  1023.0hPa Calm     95% 0in /  0.0mm 0 W/m2
00:19 46.2 °F /  7.9 °C 44.8 °F /  7.1 °C 30.2in /  1023.0hPa Calm     95% 0in /  0.0mm 0 W/m2
00:24 46.2 °F /  7.9 °C 45.1 °F /  7.3 °C 30.2in /  1023.0hPa Calm     96% 0in /  0.0mm 0 W/m2
00:29 46.2 °F /  7.9 °C 45.1 °F /  7.3 °C 30.2in /  1022.7hPa Calm     96% 0in /  0.0mm 0 W/m2
00:34 46.4 °F /  8 °C 45.3 °F /  7.4 °C 30.2in /  1022.7hPa Calm     96% 0in /  0.0mm 0 W/m2
00:39 46.6 °F /  8.1 °C 45.5 °F /  7.5 °C 30.2in /  1022.7hPa Calm     96% 0in /  0.0mm 0 W/m2
00:44 46.6 °F /  8.1 °C 45.5 °F /  7.5 °C 30.2in /  1022.7hPa Calm     96% 0in /  0.0mm 0 W/m2
00:49 46.8 °F /  8.2 °C 45.7 °F /  7.6 °C 30.2in /  1022.7hPa Calm     96% 0in /  0.0mm 0 W/m2
00:54 46.9 °F /  8.3 °C 45.9 °F /  7.7 °C 30.2in /  1022.7hPa Calm     96% 0in /  0.0mm 0 W/m2
00:59 46.9 °F /  8.3 °C 45.9 °F /  7.7 °C 30.2in /  1022.7hPa Calm     96% 0in /  0.0mm 0 W/m2
01:04 47.1 °F /  8.4 °C 46 °F /  7.8 °C 30.2in /  1022.7hPa Calm     96% 0in /  0.0mm 0 W/m2
01:09 47.1 °F /  8.4 °C 46 °F /  7.8 °C 30.2in /  1022.7hPa Calm     96% 0in /  0.0mm 0 W/m2
01:14 47.1 °F /  8.4 °C 46 °F /  7.8 °C 30.2in /  1022.7hPa Calm     96% 0in /  0.0mm 0 W/m2
01:19 47.1 °F /  8.4 °C 46 °F /  7.8 °C 30.2in /  1022.7hPa Calm     96% 0in /  0.0mm 0 W/m2
01:24 47.3 °F /  8.5 °C 46.2 °F /  7.9 °C 30.2in /  1022.7hPa Calm     96% 0in /  0.0mm 0 W/m2
01:29 47.3 °F /  8.5 °C 46.2 °F /  7.9 °C 30.2in /  1022.7hPa Calm     96% 0in /  0.0mm 0 W/m2
01:34 47.3 °F /  8.5 °C 46.2 °F /  7.9 °C 30.2in /  1022.7hPa Calm     96% 0in /  0.0mm 0 W/m2
01:39 47.3 °F /  8.5 °C 46.2 °F /  7.9 °C 30.2in /  1022.7hPa Calm     96% 0in /  0.0mm 0 W/m2
01:44 47.3 °F /  8.5 °C 46.2 °F /  7.9 °C 30.2in /  1022.7hPa Calm     96% 0in /  0.0mm 0 W/m2
01:49 47.5 °F /  8.6 °C 46.4 °F /  8 °C 30.2in /  1022.7hPa Calm     96% 0in /  0.0mm 0 W/m2
01:54 47.5 °F /  8.6 °C 46.4 °F /  8 °C 30.2in /  1022.7hPa Calm     96% 0in /  0.0mm 0 W/m2
01:59 47.5 °F /  8.6 °C 46.4 °F /  8 °C 30.2in /  1022.7hPa Calm     96% 0in /  0.0mm 0 W/m2
Juneau County Weather
Compliments of Weather Underground - 2 mb